Terminal Aerodrome Forecast
Issued by NWS Louisville, KY

Home | Current Version | Previous Version | Text Only | Print | Product List | Glossary On
Versions: 1 2 3 4 5 6 7 8 9 10 11 12 13 14 15 16 17 18 19 20 21 22 23 24 25 26
000
FTUS43 KLMK 010555 CCB
TAFSDF
TAF COR
KSDF 010555Z 0106/0212 VRB03KT 1SM BR BKN008
     FM011300 17005KT 5SM BR BKN015
     FM011800 19007KT P6SM BKN022
     FM012100 22007KT P6SM BKN035
     FM020000 21004KT P6SM BKN035=

USA.gov is the U.S. government's official web portal to all federal, state and local government web resources and services.